Time;durP1;ratioP1;P1;durP2;ratioP2;P2;SDS_P1;SDS_P2;PMS_P1;PMS_P2;Temp;Humidity;BMP_temperature;BMP_pressure;BME280_temperature;BME280_humidity;BME280_pressure;Samples;Min_cycle;Max_cycle;Signal;HPM_P1;HPM_P2
2023/12/30 00:02:08;;;;;;;3.40;0.53;;;;;;;;;;5015778;28;20444;-81
2023/12/30 00:04:34;;;;;;;5.63;0.23;;;;;;;;;;5014618;28;20506;-84
2023/12/30 00:07:00;;;;;;;4.60;0.90;;;;;;;;;;5014715;28;20465;-81
2023/12/30 00:09:26;;;;;;;2.40;0.33;;;;;;;;;;5015906;28;20409;-84
2023/12/30 00:11:52;;;;;;;6.57;0.30;;;;;;;;;;5015867;28;20965;-84
2023/12/30 00:14:18;;;;;;;3.00;0.30;;;;;;;;;;5015810;28;20919;-85
2023/12/30 00:16:44;;;;;;;6.07;5.33;;;;;;;;;;5015316;28;20482;-82
2023/12/30 00:19:11;;;;;;;1.83;0.30;;;;;;;;;;5015584;28;20412;-82
2023/12/30 00:21:37;;;;;;;3.00;0.30;;;;;;;;;;5014255;28;20438;-81
2023/12/30 00:24:06;;;;;;;2.33;0.30;;;;;;;;;;5021232;28;20772;-85
2023/12/30 00:26:32;;;;;;;3.07;0.20;;;;;;;;;;5035335;28;20429;-82
2023/12/30 00:28:58;;;;;;;2.60;0.20;;;;;;;;;;5034050;28;20429;-82
2023/12/30 00:31:25;;;;;;;3.23;0.43;;;;;;;;;;5034872;28;20419;-81
2023/12/30 00:33:52;;;;;;;1.20;0.20;;;;;;;;;;5035428;28;20881;-86
2023/12/30 00:36:18;;;;;;;1.53;0.40;;;;;;;;;;5035266;28;20420;-85
2023/12/30 00:38:44;;;;;;;2.63;0.20;;;;;;;;;;5035172;28;20758;-82
2023/12/30 00:41:10;;;;;;;1.60;0.30;;;;;;;;;;5033710;28;20469;-83
2023/12/30 00:43:36;;;;;;;2.30;0.40;;;;;;;;;;5033730;28;20418;-84
2023/12/30 00:46:02;;;;;;;2.20;0.30;;;;;;;;;;5034517;28;20420;-82
2023/12/30 00:48:28;;;;;;;5.50;0.60;;;;;;;;;;5034902;28;20825;-83
2023/12/30 00:50:54;;;;;;;2.07;0.43;;;;;;;;;;5034780;28;20416;-85
2023/12/30 00:53:21;;;;;;;2.20;0.67;;;;;;;;;;5033630;28;20415;-81
2023/12/30 00:55:47;;;;;;;2.43;0.40;;;;;;;;;;5034822;28;20170;-80
2023/12/30 00:58:13;;;;;;;0.90;0.20;;;;;;;;;;5033365;28;20437;-86
2023/12/30 01:00:39;;;;;;;2.30;0.50;;;;;;;;;;5034108;28;20536;-85
2023/12/30 01:03:04;;;;;;;3.17;0.50;;;;;;;;;;5034648;28;20772;-81
2023/12/30 01:05:30;;;;;;;3.60;0.97;;;;;;;;;;5034684;28;20416;-78
2023/12/30 01:07:56;;;;;;;2.00;0.50;;;;;;;;;;5034573;28;20490;-86
2023/12/30 01:10:22;;;;;;;8.03;1.00;;;;;;;;;;5034360;28;20419;-82
2023/12/30 01:12:48;;;;;;;3.87;0.50;;;;;;;;;;5034566;28;20468;-81
2023/12/30 01:15:14;;;;;;;4.50;0.77;;;;;;;;;;5032721;28;20906;-82
2023/12/30 01:17:40;;;;;;;4.43;0.50;;;;;;;;;;5034177;28;20515;-85
2023/12/30 01:20:06;;;;;;;1.83;0.63;;;;;;;;;;5018677;28;20588;-80
2023/12/30 01:22:32;;;;;;;2.30;0.30;;;;;;;;;;5007168;28;20257;-83
2023/12/30 01:24:58;;;;;;;3.80;0.27;;;;;;;;;;5033886;28;20516;-86
2023/12/30 01:27:24;;;;;;;2.40;0.30;;;;;;;;;;5032531;28;20442;-86
2023/12/30 01:29:50;;;;;;;2.47;0.20;;;;;;;;;;5033507;28;20175;-82
2023/12/30 01:32:16;;;;;;;5.73;0.90;;;;;;;;;;5033751;28;20426;-85
2023/12/30 01:34:42;;;;;;;1.43;0.30;;;;;;;;;;5032911;28;20215;-86
2023/12/30 01:37:08;;;;;;;2.53;0.67;;;;;;;;;;5034209;28;20843;-86
2023/12/30 01:39:34;;;;;;;2.50;0.40;;;;;;;;;;5033746;28;20459;-82
2023/12/30 01:42:02;;;;;;;0.80;0.63;;;;;;;;;;5033421;28;20435;-83
2023/12/30 01:44:28;;;;;;;2.40;0.80;;;;;;;;;;5033415;28;20515;-85
2023/12/30 01:46:59;;;;;;;1.43;0.20;;;;;;;;;;5033395;28;20474;-82
2023/12/30 01:49:25;;;;;;;1.60;0.50;;;;;;;;;;5033990;28;20460;-85
2023/12/30 01:51:52;;;;;;;1.27;0.40;;;;;;;;;;5032649;28;20431;-83
2023/12/30 01:54:18;;;;;;;2.90;0.23;;;;;;;;;;5033999;28;20535;-80
2023/12/30 01:56:44;;;;;;;2.30;0.30;;;;;;;;;;5033678;28;20835;-82
2023/12/30 01:59:12;;;;;;;2.43;0.53;;;;;;;;;;5033449;28;20462;-84
2023/12/30 02:01:38;;;;;;;1.70;0.30;;;;;;;;;;5033436;28;20425;-80
2023/12/30 02:04:04;;;;;;;1.37;0.33;;;;;;;;;;5033803;28;20445;-85
2023/12/30 02:06:29;;;;;;;2.10;0.50;;;;;;;;;;5033811;28;20802;-85
2023/12/30 02:08:55;;;;;;;1.17;0.33;;;;;;;;;;5031962;28;20416;-84
2023/12/30 02:11:21;;;;;;;1.50;0.20;;;;;;;;;;5033648;28;20218;-81
2023/12/30 02:13:48;;;;;;;3.10;0.53;;;;;;;;;;5033526;28;20422;-83
2023/12/30 02:16:14;;;;;;;1.17;0.27;;;;;;;;;;5033245;28;20415;-84
2023/12/30 02:18:40;;;;;;;3.00;0.67;;;;;;;;;;5033505;28;20488;-84
2023/12/30 02:21:06;;;;;;;1.97;0.37;;;;;;;;;;5033246;28;20207;-84
2023/12/30 02:23:32;;;;;;;5.27;0.70;;;;;;;;;;5033334;28;20416;-80
2023/12/30 02:25:58;;;;;;;1.70;1.07;;;;;;;;;;5033457;28;20419;-80
2023/12/30 02:28:30;;;;;;;2.97;0.67;;;;;;;;;;5033464;28;20433;-80
2023/12/30 02:31:05;;;;;;;3.03;0.50;;;;;;;;;;5033075;28;20477;-80
2023/12/30 02:33:30;;;;;;;2.10;0.20;;;;;;;;;;5033417;28;20425;-84
2023/12/30 02:35:56;;;;;;;3.50;0.40;;;;;;;;;;5033309;28;20411;-83
2023/12/30 02:38:22;;;;;;;1.73;0.30;;;;;;;;;;5033225;28;20419;-83
2023/12/30 02:40:49;;;;;;;3.00;0.87;;;;;;;;;;5033140;28;20981;-83
2023/12/30 02:43:15;;;;;;;4.57;0.53;;;;;;;;;;5033217;28;20530;-83
2023/12/30 02:45:41;;;;;;;1.73;0.20;;;;;;;;;;5032785;28;20415;-83
2023/12/30 02:48:07;;;;;;;2.67;0.20;;;;;;;;;;5033082;28;20410;-82
2023/12/30 02:50:33;;;;;;;2.20;0.30;;;;;;;;;;5033133;28;20423;-83
2023/12/30 02:52:59;;;;;;;5.43;0.50;;;;;;;;;;5033054;28;20459;-78
2023/12/30 02:55:25;;;;;;;2.73;0.20;;;;;;;;;;5032957;28;20442;-81
2023/12/30 02:57:50;;;;;;;10.73;0.37;;;;;;;;;;5033031;28;20409;-83
2023/12/30 03:00:17;;;;;;;3.37;0.20;;;;;;;;;;5032402;28;20482;-81
2023/12/30 03:02:43;;;;;;;1.43;0.30;;;;;;;;;;5032907;28;20411;-79
2023/12/30 03:05:09;;;;;;;1.90;0.37;;;;;;;;;;5032947;28;20422;-80
2023/12/30 03:07:36;;;;;;;4.20;0.20;;;;;;;;;;5032921;28;20976;-82
2023/12/30 03:10:03;;;;;;;3.10;0.30;;;;;;;;;;5033005;28;20747;-83
2023/12/30 03:12:28;;;;;;;4.23;0.70;;;;;;;;;;5032945;28;20786;-84
2023/12/30 03:14:54;;;;;;;2.40;0.60;;;;;;;;;;5032462;28;20465;-84
2023/12/30 03:17:20;;;;;;;6.70;0.63;;;;;;;;;;5032859;28;20405;-84
2023/12/30 03:19:46;;;;;;;4.43;0.73;;;;;;;;;;5032878;28;20468;-85
2023/12/30 03:22:12;;;;;;;6.93;0.57;;;;;;;;;;5015436;28;20397;-80
2023/12/30 03:24:38;;;;;;;3.23;0.43;;;;;;;;;;4994048;28;20491;-81
2023/12/30 03:27:04;;;;;;;3.30;0.60;;;;;;;;;;5015740;28;20790;-86
2023/12/30 03:29:30;;;;;;;5.80;0.40;;;;;;;;;;5015390;28;20940;-87
2023/12/30 03:31:56;;;;;;;3.80;0.60;;;;;;;;;;5016948;28;20490;-81
2023/12/30 03:34:23;;;;;;;4.77;0.47;;;;;;;;;;5016950;28;20493;-86
2023/12/30 03:36:52;;;;;;;3.50;0.60;;;;;;;;;;5016860;28;20417;-82
2023/12/30 03:39:18;;;;;;;6.97;0.60;;;;;;;;;;5016677;28;20449;-82
2023/12/30 03:41:44;;;;;;;2.10;0.33;;;;;;;;;;5016888;28;20449;-87
2023/12/30 03:44:10;;;;;;;2.60;0.50;;;;;;;;;;5015586;28;20422;-86
2023/12/30 03:46:35;;;;;;;6.13;0.50;;;;;;;;;;5016440;28;20430;-87
2023/12/30 03:49:01;;;;;;;4.03;0.43;;;;;;;;;;5015466;28;20415;-79
2023/12/30 03:51:27;;;;;;;5.73;0.70;;;;;;;;;;5016707;28;20897;-81
2023/12/30 03:53:53;;;;;;;3.93;0.50;;;;;;;;;;5016687;28;20411;-86
2023/12/30 03:56:19;;;;;;;5.80;0.23;;;;;;;;;;5016519;28;20901;-80
2023/12/30 03:58:45;;;;;;;2.20;0.67;;;;;;;;;;5015123;28;20424;-80
2023/12/30 04:01:11;;;;;;;6.57;1.10;;;;;;;;;;5015876;28;20483;-79
2023/12/30 04:03:37;;;;;;;4.40;0.67;;;;;;;;;;5016374;28;20551;-82
2023/12/30 04:06:03;;;;;;;8.17;0.47;;;;;;;;;;5016268;28;20451;-80
2023/12/30 04:08:29;;;;;;;3.53;0.60;;;;;;;;;;5016272;28;20411;-81
2023/12/30 04:10:55;;;;;;;4.20;0.47;;;;;;;;;;5016143;28;20427;-82
2023/12/30 04:13:21;;;;;;;4.77;0.53;;;;;;;;;;5016188;28;20425;-83
2023/12/30 04:15:47;;;;;;;7.40;1.13;;;;;;;;;;5015755;28;20410;-81
2023/12/30 04:18:12;;;;;;;6.17;0.67;;;;;;;;;;5016063;28;20415;-80
2023/12/30 04:20:38;;;;;;;9.27;1.17;;;;;;;;;;5015925;28;20990;-81
2023/12/30 04:23:04;;;;;;;7.07;1.27;;;;;;;;;;5015765;28;20417;-82
2023/12/30 04:25:30;;;;;;;5.40;0.60;;;;;;;;;;5014466;28;20833;-83
2023/12/30 04:27:56;;;;;;;4.33;0.40;;;;;;;;;;5015899;28;20416;-84
2023/12/30 04:30:22;;;;;;;8.17;0.93;;;;;;;;;;5022255;28;20421;-84
2023/12/30 04:32:48;;;;;;;4.40;0.90;;;;;;;;;;5035104;28;20908;-84
2023/12/30 04:35:14;;;;;;;4.70;1.17;;;;;;;;;;5035558;28;20424;-84
2023/12/30 04:37:40;;;;;;;4.80;0.63;;;;;;;;;;5034176;28;20428;-83
2023/12/30 04:40:09;;;;;;;6.03;0.80;;;;;;;;;;5035381;28;20472;-83
2023/12/30 04:42:38;;;;;;;5.00;1.10;;;;;;;;;;5035381;28;20443;-82
2023/12/30 04:45:04;;;;;;;5.93;0.70;;;;;;;;;;5035050;28;20769;-84
2023/12/30 04:47:30;;;;;;;5.47;0.40;;;;;;;;;;5035292;28;20414;-81
2023/12/30 04:49:56;;;;;;;2.57;0.90;;;;;;;;;;5035329;28;20753;-84
2023/12/30 04:52:22;;;;;;;4.40;1.00;;;;;;;;;;5035187;28;20415;-83
2023/12/30 04:54:48;;;;;;;3.03;0.60;;;;;;;;;;5035174;28;20471;-83
2023/12/30 04:57:14;;;;;;;4.10;1.03;;;;;;;;;;5035042;28;20773;-82
2023/12/30 04:59:40;;;;;;;6.60;0.93;;;;;;;;;;5034453;28;20479;-81
2023/12/30 05:02:06;;;;;;;1.53;0.83;;;;;;;;;;5035019;28;20479;-83
2023/12/30 05:04:32;;;;;;;3.53;0.93;;;;;;;;;;5034979;28;20411;-81
2023/12/30 05:06:58;;;;;;;11.67;0.90;;;;;;;;;;5034910;28;20421;-87
2023/12/30 05:09:24;;;;;;;4.40;0.63;;;;;;;;;;5034859;28;20920;-88
2023/12/30 05:11:50;;;;;;;6.90;1.30;;;;;;;;;;5034953;28;20509;-83
2023/12/30 05:14:18;;;;;;;5.53;0.87;;;;;;;;;;5034584;28;20411;-87
2023/12/30 05:16:45;;;;;;;8.03;0.90;;;;;;;;;;5033519;28;20416;-81
2023/12/30 05:19:14;;;;;;;7.67;0.87;;;;;;;;;;5034574;28;20417;-81
2023/12/30 05:21:39;;;;;;;6.53;0.40;;;;;;;;;;5034675;28;20425;-85
2023/12/30 05:24:06;;;;;;;2.83;0.30;;;;;;;;;;5035181;28;20900;-82
2023/12/30 05:26:32;;;;;;;5.60;0.97;;;;;;;;;;5034634;28;20422;-85
2023/12/30 05:28:58;;;;;;;6.33;1.10;;;;;;;;;;5034136;28;20430;-79
2023/12/30 05:31:24;;;;;;;2.30;0.60;;;;;;;;;;5033958;28;20500;-91
2023/12/30 05:33:50;;;;;;;5.23;0.30;;;;;;;;;;5034668;28;20414;-88
2023/12/30 05:36:16;;;;;;;4.17;0.80;;;;;;;;;;5033207;28;20513;-87
2023/12/30 05:38:42;;;;;;;2.80;0.83;;;;;;;;;;5034378;28;20424;-86
2023/12/30 05:41:08;;;;;;;5.27;1.03;;;;;;;;;;5034562;28;20496;-81
2023/12/30 05:43:34;;;;;;;4.87;0.97;;;;;;;;;;5033788;28;20806;-90
2023/12/30 05:46:00;;;;;;;5.97;0.50;;;;;;;;;;5034597;28;20417;-86
2023/12/30 05:48:25;;;;;;;2.03;0.70;;;;;;;;;;5033020;28;20414;-80
2023/12/30 05:50:51;;;;;;;5.60;0.50;;;;;;;;;;5032879;28;20432;-88
2023/12/30 05:53:17;;;;;;;9.27;1.30;;;;;;;;;;5034098;28;20930;-81
2023/12/30 05:55:43;;;;;;;6.23;0.63;;;;;;;;;;5032842;28;20924;-87
2023/12/30 05:58:10;;;;;;;7.17;1.17;;;;;;;;;;5033976;28;20408;-87
2023/12/30 06:00:39;;;;;;;8.90;1.30;;;;;;;;;;5033290;28;20493;-82
2023/12/30 06:03:05;;;;;;;3.23;0.70;;;;;;;;;;5033688;28;20424;-86
2023/12/30 06:05:30;;;;;;;5.47;0.50;;;;;;;;;;5033795;28;20418;-81
2023/12/30 06:07:56;;;;;;;4.37;1.37;;;;;;;;;;5032627;28;20419;-83
2023/12/30 06:10:23;;;;;;;5.03;0.40;;;;;;;;;;5033790;28;20415;-81
2023/12/30 06:12:49;;;;;;;5.43;1.43;;;;;;;;;;5032446;28;20414;-83
2023/12/30 06:15:15;;;;;;;5.73;1.23;;;;;;;;;;4987825;28;20778;-87
2023/12/30 06:17:41;;;;;;;6.50;0.60;;;;;;;;;;5033523;28;20451;-82
2023/12/30 06:20:07;;;;;;;9.10;1.20;;;;;;;;;;5033453;28;20511;-84
2023/12/30 06:22:33;;;;;;;11.00;1.00;;;;;;;;;;5032159;28;20431;-82
2023/12/30 06:24:59;;;;;;;3.33;1.03;;;;;;;;;;5033488;28;20780;-83
2023/12/30 06:27:25;;;;;;;4.00;0.50;;;;;;;;;;5033394;28;20415;-82
2023/12/30 06:29:51;;;;;;;5.03;1.03;;;;;;;;;;5033113;28;20464;-82
2023/12/30 06:32:17;;;;;;;3.73;0.30;;;;;;;;;;5033260;28;20446;-82
2023/12/30 06:34:43;;;;;;;3.97;0.83;;;;;;;;;;5033283;28;20218;-85
2023/12/30 06:37:09;;;;;;;3.70;0.47;;;;;;;;;;5033279;28;20891;-84
2023/12/30 06:39:35;;;;;;;8.20;0.70;;;;;;;;;;5033127;28;20468;-82
2023/12/30 06:42:01;;;;;;;5.70;0.73;;;;;;;;;;5033258;28;20469;-84
2023/12/30 06:44:27;;;;;;;5.13;0.60;;;;;;;;;;5032769;28;20418;-84
2023/12/30 06:46:53;;;;;;;3.43;0.30;;;;;;;;;;5033093;28;20422;-82
2023/12/30 06:49:19;;;;;;;5.67;0.80;;;;;;;;;;5032909;28;20403;-85
2023/12/30 06:51:45;;;;;;;6.03;0.50;;;;;;;;;;5033151;28;20465;-82
2023/12/30 06:54:11;;;;;;;7.07;0.83;;;;;;;;;;5033002;28;20446;-80
2023/12/30 06:56:36;;;;;;;6.90;0.97;;;;;;;;;;5032780;28;20423;-85
2023/12/30 06:59:02;;;;;;;6.80;0.73;;;;;;;;;;5031147;28;20426;-81
2023/12/30 07:01:28;;;;;;;6.03;0.70;;;;;;;;;;5032961;28;20218;-85
2023/12/30 07:03:55;;;;;;;10.27;1.80;;;;;;;;;;5032994;28;20495;-84
2023/12/30 07:06:21;;;;;;;11.77;1.23;;;;;;;;;;5032634;28;20419;-82
2023/12/30 07:08:47;;;;;;;5.20;0.97;;;;;;;;;;5032648;28;20419;-81
2023/12/30 07:11:13;;;;;;;4.87;0.50;;;;;;;;;;5032758;28;20414;-81
2023/12/30 07:13:38;;;;;;;6.53;0.80;;;;;;;;;;5025377;28;20485;-79
2023/12/30 07:16:05;;;;;;;3.63;0.67;;;;;;;;;;4998353;28;20790;-80
2023/12/30 07:18:30;;;;;;;4.70;2.07;;;;;;;;;;5032062;28;20421;-81
2023/12/30 07:20:56;;;;;;;5.67;0.80;;;;;;;;;;5032390;28;20484;-81
2023/12/30 07:23:22;;;;;;;4.70;0.80;;;;;;;;;;5031250;28;20417;-82
2023/12/30 07:25:51;;;;;;;8.87;0.90;;;;;;;;;;5032726;28;20476;-85
2023/12/30 07:28:17;;;;;;;6.77;0.80;;;;;;;;;;5032386;28;20416;-85
2023/12/30 07:30:43;;;;;;;8.53;1.50;;;;;;;;;;5031970;28;20933;-81
2023/12/30 07:33:09;;;;;;;4.63;1.27;;;;;;;;;;5027996;28;20455;-85
2023/12/30 07:35:35;;;;;;;5.23;0.40;;;;;;;;;;5023172;28;20450;-82
2023/12/30 07:38:04;;;;;;;9.00;0.63;;;;;;;;;;5031963;28;20414;-79
2023/12/30 07:40:30;;;;;;;3.50;0.60;;;;;;;;;;5031846;28;20463;-84
2023/12/30 07:42:56;;;;;;;6.70;0.67;;;;;;;;;;5032063;28;20406;-82
2023/12/30 07:45:21;;;;;;;6.27;0.87;;;;;;;;;;5031800;28;20418;-81
2023/12/30 07:47:48;;;;;;;7.50;0.70;;;;;;;;;;5031899;28;20464;-80
2023/12/30 07:50:15;;;;;;;9.47;1.40;;;;;;;;;;5032042;28;20900;-78
2023/12/30 07:52:41;;;;;;;4.20;0.60;;;;;;;;;;5031908;28;20468;-81
2023/12/30 07:55:07;;;;;;;7.83;0.87;;;;;;;;;;5032029;28;20413;-80
2023/12/30 07:57:33;;;;;;;7.53;0.77;;;;;;;;;;5031828;28;20880;-85
2023/12/30 07:59:59;;;;;;;7.17;0.50;;;;;;;;;;5031268;28;21060;-80
2023/12/30 08:02:25;;;;;;;6.83;0.43;;;;;;;;;;5044601;28;20553;-82
2023/12/30 08:04:50;;;;;;;9.00;1.30;;;;;;;;;;5031901;28;20410;-79
2023/12/30 08:07:16;;;;;;;3.40;0.40;;;;;;;;;;5032970;28;20572;-81
2023/12/30 08:09:42;;;;;;;9.17;0.83;;;;;;;;;;5035664;28;20171;-81
2023/12/30 08:12:08;;;;;;;4.27;0.80;;;;;;;;;;5035358;28;20755;-83
2023/12/30 08:14:34;;;;;;;3.77;0.30;;;;;;;;;;5035013;28;20410;-82
2023/12/30 08:17:01;;;;;;;7.43;0.60;;;;;;;;;;5035409;28;20423;-81
2023/12/30 08:19:27;;;;;;;5.40;0.60;;;;;;;;;;4994071;28;20430;-79
2023/12/30 08:21:56;;;;;;;4.63;0.63;;;;;;;;;;5035385;28;20419;-81
2023/12/30 08:24:22;;;;;;;7.53;1.00;;;;;;;;;;5035186;28;20411;-81
2023/12/30 08:26:48;;;;;;;7.87;1.47;;;;;;;;;;5035088;28;20436;-86
2023/12/30 08:29:15;;;;;;;4.53;1.40;;;;;;;;;;5034921;28;20407;-82
2023/12/30 08:31:45;;;;;;;5.90;0.53;;;;;;;;;;5033810;28;20918;-83
2023/12/30 08:34:11;;;;;;;2.47;0.50;;;;;;;;;;5035159;28;20431;-80
2023/12/30 08:36:37;;;;;;;2.23;0.67;;;;;;;;;;5035044;28;20818;-84
2023/12/30 08:39:03;;;;;;;5.43;1.47;;;;;;;;;;5034867;28;20451;-80
2023/12/30 08:41:29;;;;;;;7.60;1.07;;;;;;;;;;5033543;28;20477;-79
2023/12/30 08:43:58;;;;;;;8.00;1.17;;;;;;;;;;5034551;28;20402;-80
2023/12/30 08:46:24;;;;;;;7.20;1.03;;;;;;;;;;5034919;28;20891;-79
2023/12/30 08:48:50;;;;;;;7.43;1.13;;;;;;;;;;5035269;28;20507;-79
2023/12/30 08:51:15;;;;;;;4.63;0.80;;;;;;;;;;5035230;28;20552;-83
2023/12/30 08:53:41;;;;;;;5.17;0.40;;;;;;;;;;5035199;28;20846;-82
2023/12/30 08:56:07;;;;;;;7.53;1.13;;;;;;;;;;5035116;28;20422;-83
2023/12/30 08:58:33;;;;;;;3.40;0.47;;;;;;;;;;5034761;28;20470;-80
2023/12/30 09:00:59;;;;;;;8.17;1.30;;;;;;;;;;5034796;28;20490;-80
2023/12/30 09:03:26;;;;;;;7.03;1.17;;;;;;;;;;5034917;28;20435;-81
2023/12/30 09:05:52;;;;;;;3.83;0.63;;;;;;;;;;5034789;28;20806;-83
2023/12/30 09:08:18;;;;;;;13.63;1.50;;;;;;;;;;5034961;28;20408;-84
2023/12/30 09:10:44;;;;;;;5.73;1.50;;;;;;;;;;5035124;28;20910;-83
2023/12/30 09:13:10;;;;;;;3.80;0.70;;;;;;;;;;5035095;28;20411;-83
2023/12/30 09:15:37;;;;;;;2.93;0.47;;;;;;;;;;5033387;28;20420;-82
2023/12/30 09:18:06;;;;;;;7.70;0.93;;;;;;;;;;5034968;28;20418;-83
2023/12/30 09:20:32;;;;;;;5.97;0.50;;;;;;;;;;5033723;28;20531;-82
2023/12/30 09:22:58;;;;;;;8.60;0.80;;;;;;;;;;5033486;28;20456;-83
2023/12/30 09:25:30;;;;;;;9.03;1.33;;;;;;;;;;5034883;28;20783;-82
2023/12/30 09:27:56;;;;;;;4.40;0.53;;;;;;;;;;5017852;28;20425;-86
2023/12/30 09:30:23;;;;;;;10.40;0.50;;;;;;;;;;5014805;28;20476;-89
2023/12/30 09:32:49;;;;;;;9.50;1.00;;;;;;;;;;5015152;28;20420;-83
2023/12/30 09:35:15;;;;;;;5.17;0.90;;;;;;;;;;5015055;28;20478;-87
2023/12/30 09:37:41;;;;;;;3.73;0.80;;;;;;;;;;5015242;28;20415;-87
2023/12/30 09:40:08;;;;;;;10.77;2.50;;;;;;;;;;5015156;28;20546;-88
2023/12/30 09:42:37;;;;;;;5.07;0.60;;;;;;;;;;5010001;28;20438;-83
2023/12/30 09:45:04;;;;;;;6.30;0.90;;;;;;;;;;5033693;28;20498;-86
2023/12/30 09:47:30;;;;;;;4.57;1.13;;;;;;;;;;5034597;28;20411;-87
2023/12/30 09:49:56;;;;;;;5.23;0.80;;;;;;;;;;5034614;28;20850;-87
2023/12/30 09:52:22;;;;;;;8.33;0.73;;;;;;;;;;5033487;28;20420;-89
2023/12/30 09:54:48;;;;;;;7.20;1.53;;;;;;;;;;5034594;28;20417;-87
2023/12/30 09:57:14;;;;;;;5.63;0.40;;;;;;;;;;5034588;28;20790;-89
2023/12/30 09:59:41;;;;;;;8.90;1.63;;;;;;;;;;5033450;28;20480;-87
2023/12/30 10:02:10;;;;;;;2.17;0.40;;;;;;;;;;5032591;28;20427;-88
2023/12/30 10:04:37;;;;;;;4.77;0.80;;;;;;;;;;5033675;28;20418;-86
2023/12/30 10:07:03;;;;;;;7.00;1.07;;;;;;;;;;5033741;28;20433;-87
2023/12/30 10:09:30;;;;;;;9.60;0.73;;;;;;;;;;5034033;28;20413;-88
2023/12/30 10:11:56;;;;;;;5.00;1.43;;;;;;;;;;5032883;28;20420;-89
2023/12/30 10:14:22;;;;;;;5.00;0.73;;;;;;;;;;5033650;28;20525;-82
2023/12/30 10:16:48;;;;;;;11.37;1.87;;;;;;;;;;5034423;28;20439;-84
2023/12/30 10:19:16;;;;;;;4.93;0.60;;;;;;;;;;5032623;28;20496;-82
2023/12/30 10:21:45;;;;;;;7.50;1.97;;;;;;;;;;5033754;28;20432;-82
2023/12/30 10:24:11;;;;;;;5.00;0.60;;;;;;;;;;5033630;28;20416;-82
2023/12/30 10:26:39;;;;;;;6.53;0.80;;;;;;;;;;5033626;28;20441;-82
2023/12/30 10:29:09;;;;;;;2.80;0.30;;;;;;;;;;5033224;28;20418;-82
2023/12/30 10:31:35;;;;;;;6.80;1.40;;;;;;;;;;5033211;28;20409;-81
2023/12/30 10:34:01;;;;;;;10.30;1.23;;;;;;;;;;5033218;28;20462;-81
2023/12/30 10:36:28;;;;;;;5.77;1.07;;;;;;;;;;5033287;28;20477;-82
2023/12/30 10:38:55;;;;;;;7.07;1.30;;;;;;;;;;5033427;28;20420;-81
2023/12/30 10:41:21;;;;;;;7.40;1.00;;;;;;;;;;5033283;28;20467;-82
2023/12/30 10:43:47;;;;;;;12.77;1.50;;;;;;;;;;5032993;28;20395;-83
2023/12/30 10:46:13;;;;;;;5.30;0.83;;;;;;;;;;5006656;28;20436;-83
2023/12/30 10:49:03;;;;;;;7.80;1.37;;;;;;;;;;5013571;28;20416;-81
2023/12/30 10:51:30;;;;;;;6.70;1.70;;;;;;;;;;5013557;28;20767;-82
2023/12/30 10:54:06;;;;;;;10.30;0.90;;;;;;;;;;5013453;28;20956;-83
2023/12/30 10:56:39;;;;;;;6.07;1.20;;;;;;;;;;5013616;28;20410;-80
2023/12/30 10:59:05;;;;;;;8.63;1.50;;;;;;;;;;5012781;28;20408;-78
2023/12/30 11:01:33;;;;;;;6.93;1.50;;;;;;;;;;5013198;28;20491;-80
2023/12/30 11:04:00;;;;;;;6.30;0.70;;;;;;;;;;5013271;28;20427;-79
2023/12/30 11:06:37;;;;;;;3.57;0.90;;;;;;;;;;5013236;28;20460;-80
2023/12/30 11:09:09;;;;;;;4.23;0.53;;;;;;;;;;5013425;28;20427;-80
2023/12/30 11:11:39;;;;;;;3.33;0.53;;;;;;;;;;5013188;28;20455;-80
2023/12/30 11:14:15;;;;;;;4.90;1.13;;;;;;;;;;5012628;28;20505;-80
2023/12/30 11:16:50;;;;;;;4.23;0.60;;;;;;;;;;5013089;28;20407;-80
2023/12/30 11:19:32;;;;;;;5.17;0.43;;;;;;;;;;5011900;28;20542;-80
2023/12/30 11:21:59;;;;;;;8.13;0.77;;;;;;;;;;5012979;28;20514;-80
2023/12/30 11:24:26;;;;;;;5.43;0.50;;;;;;;;;;5012939;28;20409;-80
2023/12/30 11:26:53;;;;;;;3.50;0.53;;;;;;;;;;5027361;28;20448;-80
2023/12/30 11:29:20;;;;;;;7.83;0.73;;;;;;;;;;5031795;28;20776;-80
2023/12/30 11:31:48;;;;;;;5.07;0.30;;;;;;;;;;5032771;28;20417;-80
2023/12/30 11:34:17;;;;;;;5.30;1.50;;;;;;;;;;5031375;28;20420;-79
2023/12/30 11:36:47;;;;;;;7.40;0.60;;;;;;;;;;5032603;28;20448;-79
2023/12/30 11:39:32;;;;;;;5.23;0.70;;;;;;;;;;5031338;28;20519;-80
2023/12/30 11:41:59;;;;;;;6.87;1.37;;;;;;;;;;5031856;28;20917;-80
2023/12/30 11:44:24;;;;;;;4.47;0.90;;;;;;;;;;5036198;28;20430;-80
2023/12/30 11:46:50;;;;;;;3.07;0.60;;;;;;;;;;4994950;28;20962;-81
2023/12/30 11:49:26;;;;;;;4.13;0.53;;;;;;;;;;5035705;28;20422;-80
2023/12/30 11:52:00;;;;;;;5.27;0.87;;;;;;;;;;5034323;28;20418;-80
2023/12/30 11:54:26;;;;;;;3.30;0.50;;;;;;;;;;5033710;28;20464;-80
2023/12/30 11:56:52;;;;;;;3.77;0.90;;;;;;;;;;5035635;28;20409;-82
2023/12/30 11:59:18;;;;;;;5.67;0.60;;;;;;;;;;5034985;28;20509;-81
2023/12/30 12:01:46;;;;;;;6.00;0.83;;;;;;;;;;5035573;28;20478;-81
2023/12/30 12:04:11;;;;;;;2.73;0.47;;;;;;;;;;5035739;28;20466;-80
2023/12/30 12:06:38;;;;;;;7.43;1.00;;;;;;;;;;5035485;28;20423;-81
2023/12/30 12:09:07;;;;;;;4.60;0.50;;;;;;;;;;5035468;28;20776;-81
2023/12/30 12:11:33;;;;;;;4.30;0.80;;;;;;;;;;5035574;28;20907;-80
2023/12/30 12:13:59;;;;;;;7.03;1.17;;;;;;;;;;5035050;28;20412;-81
2023/12/30 12:16:26;;;;;;;7.73;0.93;;;;;;;;;;5035284;28;20408;-81
2023/12/30 12:18:53;;;;;;;2.70;0.50;;;;;;;;;;5034046;28;20464;-81
2023/12/30 12:21:19;;;;;;;6.47;1.13;;;;;;;;;;5035052;28;20464;-80
2023/12/30 12:23:45;;;;;;;5.17;0.90;;;;;;;;;;5035135;28;20420;-81
2023/12/30 12:26:11;;;;;;;3.83;0.50;;;;;;;;;;5035072;28;20407;-80
2023/12/30 12:28:37;;;;;;;4.67;0.57;;;;;;;;;;5034419;28;20443;-80
2023/12/30 12:31:03;;;;;;;5.80;0.90;;;;;;;;;;5034816;28;20408;-80
2023/12/30 12:33:29;;;;;;;7.60;1.30;;;;;;;;;;5034333;28;20919;-80
2023/12/30 12:35:55;;;;;;;4.03;0.83;;;;;;;;;;5034799;28;20498;-80
2023/12/30 12:38:20;;;;;;;6.17;1.27;;;;;;;;;;5034819;28;20819;-79
2023/12/30 12:40:46;;;;;;;8.00;0.70;;;;;;;;;;5034668;28;20824;-80
2023/12/30 12:43:15;;;;;;;5.40;0.60;;;;;;;;;;5034370;28;20926;-80
2023/12/30 12:45:41;;;;;;;13.43;1.63;;;;;;;;;;5034824;28;20450;-80
2023/12/30 12:48:07;;;;;;;11.87;1.10;;;;;;;;;;5034706;28;20856;-79
2023/12/30 12:50:33;;;;;;;6.90;0.97;;;;;;;;;;5032000;28;20495;-79
2023/12/30 12:52:59;;;;;;;6.10;0.33;;;;;;;;;;5033041;28;20570;-80
2023/12/30 12:55:26;;;;;;;4.23;0.30;;;;;;;;;;5033392;28;20896;-80
2023/12/30 12:57:52;;;;;;;4.60;0.70;;;;;;;;;;5034293;28;20499;-80
2023/12/30 13:00:21;;;;;;;6.47;0.67;;;;;;;;;;5034277;28;20550;-80
2023/12/30 13:02:50;;;;;;;8.60;0.97;;;;;;;;;;5031969;28;20784;-80
2023/12/30 13:05:19;;;;;;;3.63;0.43;;;;;;;;;;5030870;28;20412;-80
2023/12/30 13:07:46;;;;;;;7.50;1.70;;;;;;;;;;5034825;28;20405;-80
2023/12/30 13:10:35;;;;;;;4.40;0.50;;;;;;;;;;5034783;28;20900;-80
2023/12/30 13:12:58;;;;;;;5.73;0.73;;;;;;;;;;5034181;28;20510;-81
2023/12/30 13:15:25;;;;;;;7.87;0.77;;;;;;;;;;5034775;28;20427;-81
2023/12/30 13:17:53;;;;;;;4.03;0.97;;;;;;;;;;5034547;28;20427;-81
2023/12/30 13:20:20;;;;;;;4.77;0.57;;;;;;;;;;5034594;28;20469;-80
2023/12/30 13:22:45;;;;;;;8.83;1.30;;;;;;;;;;5034651;28;20413;-81
2023/12/30 13:25:13;;;;;;;6.37;0.70;;;;;;;;;;5034568;28;20848;-79
2023/12/30 13:27:39;;;;;;;7.13;1.07;;;;;;;;;;5032936;28;20430;-80
2023/12/30 13:30:06;;;;;;;7.33;0.50;;;;;;;;;;5034442;28;20411;-80
2023/12/30 13:32:32;;;;;;;9.17;1.03;;;;;;;;;;5034371;28;20507;-79
2023/12/30 13:34:58;;;;;;;5.00;0.63;;;;;;;;;;5034424;28;20415;-80
2023/12/30 13:37:24;;;;;;;7.60;1.13;;;;;;;;;;5034413;28;20756;-80
2023/12/30 13:39:51;;;;;;;10.20;0.60;;;;;;;;;;5034217;28;20252;-80
2023/12/30 13:42:19;;;;;;;4.00;0.60;;;;;;;;;;5034216;28;20429;-80
2023/12/30 13:44:47;;;;;;;4.13;0.63;;;;;;;;;;5033907;28;20419;-79
2023/12/30 13:52:28;;;;;;;8.13;0.90;;;;;;;;;;5034502;28;20422;-81
2023/12/30 13:54:54;;;;;;;5.30;0.80;;;;;;;;;;5034194;28;20624;-81
2023/12/30 13:57:24;;;;;;;4.90;0.83;;;;;;;;;;5034048;28;20908;-81
2023/12/30 13:59:52;;;;;;;8.43;0.60;;;;;;;;;;5033427;28;20499;-82
2023/12/30 14:02:18;;;;;;;7.43;0.77;;;;;;;;;;5033980;28;20443;-83
2023/12/30 14:04:49;;;;;;;7.50;0.83;;;;;;;;;;5033298;28;20404;-81
2023/12/30 14:07:22;;;;;;;7.80;0.87;;;;;;;;;;5033691;28;20449;-81
2023/12/30 14:09:58;;;;;;;5.57;0.60;;;;;;;;;;5033640;28;20407;-82
2023/12/30 14:12:29;;;;;;;5.40;0.67;;;;;;;;;;5034022;28;20462;-81
2023/12/30 14:14:55;;;;;;;5.90;0.80;;;;;;;;;;5033816;28;20407;-82
2023/12/30 14:17:31;;;;;;;7.33;0.90;;;;;;;;;;5033805;28;20415;-81
2023/12/30 14:19:58;;;;;;;12.27;1.30;;;;;;;;;;5034033;28;20835;-80
2023/12/30 14:22:24;;;;;;;3.83;0.50;;;;;;;;;;5034066;28;20420;-80
2023/12/30 14:24:50;;;;;;;7.80;0.80;;;;;;;;;;5033841;28;20485;-82
2023/12/30 14:27:17;;;;;;;6.13;1.00;;;;;;;;;;5033917;28;20897;-81
2023/12/30 14:29:48;;;;;;;4.30;0.30;;;;;;;;;;5032651;28;20498;-80
2023/12/30 14:32:14;;;;;;;9.07;0.70;;;;;;;;;;5033650;28;20420;-81
2023/12/30 14:34:41;;;;;;;8.83;0.60;;;;;;;;;;5033244;28;20405;-80
2023/12/30 14:37:08;;;;;;;2.60;0.77;;;;;;;;;;5033353;28;20419;-82
2023/12/30 14:39:34;;;;;;;5.40;1.13;;;;;;;;;;5032019;28;20415;-81
2023/12/30 14:42:00;;;;;;;6.97;1.07;;;;;;;;;;5033183;28;20474;-82
2023/12/30 14:44:26;;;;;;;3.30;0.70;;;;;;;;;;5032833;28;20418;-81
2023/12/30 14:46:52;;;;;;;4.83;1.80;;;;;;;;;;5033132;28;20416;-82